Greybull, South Big Horn County Airport (KGEY)

NameSouth Big Horn County Airport
CityGreybull
CountryUnited States
ICAOKGEY
IATAGEY
Altitude1201 m
CoordinatesGoogle Map
Live Air TrafficLiveATC.net
METARKGEY 191453Z AUTO 31003KT 10SM CLR M01/M03 A2972 RMK AO2 SLP084 T10061028 56010
2019-11-19 14:53:00 Wind: West-Northwest (310°) 1.54 m/s - Visibility: 16093.4 m - Temperature: -1 °C - Dew point: -3 °C - Humidity: 86.5% - Pressure: 1006.43 hPa
Statistics

The table below shows the detailed information of all flights to/from Greybull, South Big Horn County Airport (KGEY).